Time;durP1;ratioP1;P1;durP2;ratioP2;P2;SDS_P1;SDS_P2;PMS_P1;PMS_P2;Temp;Humidity;BMP_temperature;BMP_pressure;BME280_temperature;BME280_humidity;BME280_pressure;Samples;Min_cycle;Max_cycle;Signal;HPM_P1;HPM_P2
2022/06/22 04:36:51;;;;;;;;;;;26.80;99.90;;;;;;6031597;23;20862;-83
2022/06/22 04:39:21;;;;;;;;;;;26.80;99.90;;;;;;4980238;28;20017;-84
2022/06/22 04:41:48;;;;;;;;;;;26.80;99.90;;;;;;4981661;28;19926;-84
2022/06/22 04:44:17;;;;;;;;;;;26.80;99.90;;;;;;4981921;28;19944;-84
2022/06/22 04:46:45;;;;;;;;;;;26.80;99.90;;;;;;4980125;28;19929;-81
2022/06/22 04:49:17;;;;;;;;;;;26.80;99.90;;;;;;4979278;28;19922;-82
2022/06/22 04:51:47;;;;;;;;;;;26.80;99.90;;;;;;4979404;28;19922;-81
2022/06/22 04:54:17;;;;;;;;;;;26.80;99.90;;;;;;4979160;28;19928;-78
2022/06/22 04:56:47;;;;;;;;;;;26.80;99.90;;;;;;4979087;28;19922;-79
2022/06/22 04:59:14;;;;;;;;;;;26.80;99.90;;;;;;4978653;28;20440;-79
2022/06/22 05:01:43;;;;;;;;;;;26.80;99.90;;;;;;4978877;28;19928;-78
2022/06/22 05:04:13;;;;;;;;;;;26.80;99.90;;;;;;4978697;28;20366;-79
2022/06/22 05:06:42;;;;;;;;;;;26.80;99.90;;;;;;4978182;28;19969;-78
2022/06/22 05:09:13;;;;;;;;;;;26.80;99.90;;;;;;4979194;28;19926;-77
2022/06/22 05:11:42;;;;;;;;;;;26.80;99.90;;;;;;4979274;28;19921;-78
2022/06/22 05:14:14;;;;;;;;;;;26.80;99.90;;;;;;4980634;28;19926;-78
2022/06/22 05:16:45;;;;;;;;;;;26.80;99.90;;;;;;4982576;28;20440;-80
2022/06/22 05:19:14;;;;;;;;;;;26.80;99.90;;;;;;4993887;28;19929;-81
2022/06/22 05:21:43;;;;;;;;;;;26.80;99.90;;;;;;4989166;28;20001;-78
2022/06/22 05:24:16;;;;;;;;;;;26.80;99.90;;;;;;4981509;28;19992;-79
2022/06/22 05:26:43;;;;;;;;;;;26.80;99.90;;;;;;4980120;28;19922;-79
2022/06/22 05:29:11;;;;;;;;;;;26.70;99.90;;;;;;4980549;28;19926;-79
2022/06/22 05:31:42;;;;;;;;;;;26.80;99.90;;;;;;4981463;28;20020;-78
2022/06/22 05:34:11;;;;;;;;;;;26.70;99.90;;;;;;4981851;28;20344;-80
2022/06/22 05:36:41;;;;;;;;;;;26.70;99.90;;;;;;4981979;28;20024;-79
2022/06/22 05:39:08;;;;;;;;;;;26.70;99.90;;;;;;4981343;28;20366;-80
2022/06/22 05:41:38;;;;;;;;;;;26.70;99.90;;;;;;4981669;28;20012;-79
2022/06/22 05:44:06;;;;;;;;;;;26.70;99.90;;;;;;4981492;28;20029;-79
2022/06/22 05:46:34;;;;;;;;;;;26.70;99.90;;;;;;4983439;28;20396;-83
2022/06/22 05:49:02;;;;;;;;;;;26.70;99.90;;;;;;4983317;28;19961;-82
2022/06/22 05:51:35;;;;;;;;;;;26.70;99.90;;;;;;4983619;28;19973;-82
2022/06/22 05:54:05;;;;;;;;;;;26.70;99.90;;;;;;4980725;28;19928;-80
2022/06/22 05:56:33;;;;;;;;;;;26.70;99.90;;;;;;4979420;28;20023;-79
2022/06/22 05:59:03;;;;;;;;;;;26.70;99.90;;;;;;4980833;28;20024;-81
2022/06/22 06:01:36;;;;;;;;;;;26.70;99.90;;;;;;4980082;28;19922;-81
2022/06/22 06:04:11;;;;;;;;;;;26.60;99.90;;;;;;4981254;28;19945;-80
2022/06/22 06:06:40;;;;;;;;;;;26.60;99.90;;;;;;4981166;28;19989;-79
2022/06/22 06:09:11;;;;;;;;;;;26.60;99.90;;;;;;4981625;28;19961;-84
2022/06/22 06:11:40;;;;;;;;;;;26.60;99.90;;;;;;4985019;28;20016;-84
2022/06/22 06:14:09;;;;;;;;;;;26.60;99.90;;;;;;4984828;28;19929;-84
2022/06/22 06:16:45;;;;;;;;;;;26.60;99.90;;;;;;4983860;28;20412;-84
2022/06/22 06:19:14;;;;;;;;;;;26.60;99.90;;;;;;4984833;28;19989;-85
2022/06/22 06:21:41;;;;;;;;;;;26.60;99.90;;;;;;4984924;28;19965;-84
2022/06/22 06:24:12;;;;;;;;;;;26.60;99.90;;;;;;4985608;28;19981;-84
2022/06/22 06:29:27;;;;;;;;;;;26.60;99.90;;;;;;4985821;28;19925;-84
2022/06/22 06:32:02;;;;;;;;;;;26.60;99.90;;;;;;4986019;28;19922;-84
2022/06/22 06:34:34;;;;;;;;;;;26.60;99.90;;;;;;4987445;28;19958;-84
2022/06/22 06:37:03;;;;;;;;;;;26.60;99.90;;;;;;4985830;28;19982;-84
2022/06/22 06:39:32;;;;;;;;;;;26.60;99.90;;;;;;4985002;28;20005;-84
2022/06/22 06:42:08;;;;;;;;;;;26.60;99.90;;;;;;4979299;28;20037;-85
2022/06/22 06:44:36;;;;;;;;;;;26.60;99.90;;;;;;4978189;28;20369;-85
2022/06/22 06:47:05;;;;;;;;;;;26.60;99.90;;;;;;4978453;28;19933;-85
2022/06/22 06:49:36;;;;;;;;;;;26.60;99.90;;;;;;4977888;28;20399;-85
2022/06/22 06:52:04;;;;;;;;;;;26.60;99.90;;;;;;4977736;28;19928;-85
2022/06/22 06:54:32;;;;;;;;;;;26.60;99.90;;;;;;4977701;28;19922;-85
2022/06/22 06:57:01;;;;;;;;;;;26.60;99.90;;;;;;4978593;28;20453;-85
2022/06/22 06:59:29;;;;;;;;;;;26.60;99.90;;;;;;4977621;28;19928;-85
2022/06/22 07:01:57;;;;;;;;;;;26.60;99.90;;;;;;4977042;28;19922;-85
2022/06/22 07:04:25;;;;;;;;;;;26.60;99.90;;;;;;4977232;28;19926;-85
2022/06/22 07:06:56;;;;;;;;;;;26.60;99.90;;;;;;4976854;28;19929;-85
2022/06/22 07:09:26;;;;;;;;;;;26.60;99.90;;;;;;4976818;28;19985;-85
2022/06/22 07:11:56;;;;;;;;;;;26.60;99.90;;;;;;4977780;28;20338;-84
2022/06/22 07:14:25;;;;;;;;;;;26.60;99.90;;;;;;4976416;28;20009;-85
2022/06/22 07:16:53;;;;;;;;;;;26.60;99.90;;;;;;4976703;28;19954;-85
2022/06/22 07:19:22;;;;;;;;;;;26.60;99.90;;;;;;4976846;28;20012;-85
2022/06/22 07:21:52;;;;;;;;;;;26.60;99.90;;;;;;4977470;28;19949;-85
2022/06/22 07:24:22;;;;;;;;;;;26.60;99.90;;;;;;4976993;28;19932;-85
2022/06/22 07:26:53;;;;;;;;;;;26.60;99.90;;;;;;4976777;28;20017;-85
2022/06/22 07:29:23;;;;;;;;;;;26.60;99.90;;;;;;4977010;28;19980;-85
2022/06/22 07:31:53;;;;;;;;;;;26.60;99.90;;;;;;4976752;28;20374;-85
2022/06/22 07:34:23;;;;;;;;;;;26.60;99.90;;;;;;4977079;28;19926;-85
2022/06/22 07:36:52;;;;;;;;;;;26.60;99.90;;;;;;4976599;28;20024;-85
2022/06/22 07:39:23;;;;;;;;;;;26.60;99.90;;;;;;4977116;28;19932;-85
2022/06/22 07:41:50;;;;;;;;;;;26.60;99.90;;;;;;4978769;28;19987;-85
2022/06/22 07:44:18;;;;;;;;;;;26.60;99.90;;;;;;4977070;28;20030;-85
2022/06/22 07:46:47;;;;;;;;;;;26.60;99.90;;;;;;4976809;28;19928;-85
2022/06/22 07:49:16;;;;;;;;;;;26.60;99.90;;;;;;4976605;28;19922;-85
2022/06/22 07:51:45;;;;;;;;;;;26.60;99.90;;;;;;4976232;28;20004;-84
2022/06/22 07:54:14;;;;;;;;;;;26.60;99.90;;;;;;4976008;28;19961;-85
2022/06/22 07:56:46;;;;;;;;;;;26.60;99.90;;;;;;4976286;28;20001;-85
2022/06/22 07:59:15;;;;;;;;;;;26.60;99.90;;;;;;4976121;28;19922;-85
2022/06/22 08:01:42;;;;;;;;;;;26.60;99.90;;;;;;4976335;28;20020;-85
2022/06/22 08:04:12;;;;;;;;;;;26.60;99.90;;;;;;4976435;28;20370;-85
2022/06/22 08:06:40;;;;;;;;;;;26.60;99.90;;;;;;4977144;28;19985;-85
2022/06/22 08:09:08;;;;;;;;;;;26.60;99.90;;;;;;4976835;28;19973;-85
2022/06/22 08:11:36;;;;;;;;;;;26.60;99.90;;;;;;4977105;28;19961;-85
2022/06/22 08:14:07;;;;;;;;;;;26.60;99.90;;;;;;4976947;28;20024;-85
2022/06/22 08:16:37;;;;;;;;;;;26.60;99.90;;;;;;4976970;28;20025;-85
2022/06/22 08:19:04;;;;;;;;;;;26.60;99.90;;;;;;4977324;28;20004;-85
2022/06/22 08:21:32;;;;;;;;;;;26.60;99.90;;;;;;4976745;28;19974;-85
2022/06/22 08:24:00;;;;;;;;;;;26.60;99.90;;;;;;4976793;28;20511;-85
2022/06/22 08:26:30;;;;;;;;;;;26.60;99.90;;;;;;4979780;28;19922;-85
2022/06/22 08:28:57;;;;;;;;;;;26.60;99.90;;;;;;4979986;28;19928;-85
2022/06/22 08:31:29;;;;;;;;;;;26.60;99.90;;;;;;4979744;28;19929;-85
2022/06/22 08:33:57;;;;;;;;;;;26.60;99.90;;;;;;4979789;28;19929;-85
2022/06/22 08:36:27;;;;;;;;;;;26.60;99.90;;;;;;4979870;28;19922;-85
2022/06/22 08:38:58;;;;;;;;;;;26.60;99.90;;;;;;4979458;28;19928;-85
2022/06/22 08:41:43;;;;;;;;;;;26.60;99.90;;;;;;4979464;28;20288;-85
2022/06/22 08:44:13;;;;;;;;;;;26.60;99.90;;;;;;4979394;28;20021;-85
2022/06/22 08:46:54;;;;;;;;;;;26.60;99.90;;;;;;4979456;28;19928;-85
2022/06/22 08:49:39;;;;;;;;;;;26.50;99.90;;;;;;4979254;28;19922;-85
2022/06/22 08:52:20;;;;;;;;;;;26.60;99.90;;;;;;4969321;28;19965;-85
2022/06/22 08:54:57;;;;;;;;;;;26.60;99.90;;;;;;4979347;28;19928;-85
2022/06/22 08:57:29;;;;;;;;;;;26.50;99.90;;;;;;4979501;28;20457;-85
2022/06/22 09:00:02;;;;;;;;;;;26.60;99.90;;;;;;4979279;28;19993;-85
2022/06/22 09:02:38;;;;;;;;;;;26.60;99.90;;;;;;4979363;28;19922;-85
2022/06/22 09:05:11;;;;;;;;;;;26.50;99.90;;;;;;4978783;28;19921;-85
2022/06/22 09:07:45;;;;;;;;;;;26.60;99.90;;;;;;4978581;28;20024;-85
2022/06/22 09:10:32;;;;;;;;;;;26.60;99.90;;;;;;4979108;28;19953;-85
2022/06/22 09:13:18;;;;;;;;;;;26.50;99.90;;;;;;4978959;28;20033;-85
2022/06/22 09:15:49;;;;;;;;;;;26.50;99.90;;;;;;4978475;28;20366;-85
2022/06/22 09:18:32;;;;;;;;;;;26.50;99.90;;;;;;4978704;28;19929;-85
2022/06/22 09:21:10;;;;;;;;;;;26.50;99.90;;;;;;4978617;28;19968;-85
2022/06/22 09:23:40;;;;;;;;;;;26.50;99.90;;;;;;4978789;28;20021;-85
2022/06/22 09:26:25;;;;;;;;;;;26.50;99.90;;;;;;4978548;28;19921;-85
2022/06/22 09:28:56;;;;;;;;;;;26.50;99.90;;;;;;4978830;28;19969;-85
2022/06/22 09:31:41;;;;;;;;;;;26.50;99.90;;;;;;4984103;28;20014;-85
2022/06/22 09:34:16;;;;;;;;;;;26.50;99.90;;;;;;4977319;28;20024;-85
2022/06/22 09:37:03;;;;;;;;;;;26.50;99.90;;;;;;4976567;28;19922;-85
2022/06/22 09:39:51;;;;;;;;;;;26.50;99.90;;;;;;4977194;28;19926;-85
2022/06/22 09:42:30;;;;;;;;;;;26.50;99.90;;;;;;4972433;28;20293;-85
2022/06/22 09:45:07;;;;;;;;;;;26.50;99.90;;;;;;4977560;28;19968;-85
2022/06/22 09:47:44;;;;;;;;;;;26.50;99.90;;;;;;4976746;28;20392;-86
2022/06/22 09:50:33;;;;;;;;;;;26.50;99.90;;;;;;4977100;28;19926;-86
2022/06/22 09:53:08;;;;;;;;;;;26.50;99.90;;;;;;4977098;28;19929;-86
2022/06/22 09:58:45;;;;;;;;;;;26.50;99.90;;;;;;4976949;28;19925;-86
2022/06/22 10:01:16;;;;;;;;;;;26.50;99.90;;;;;;4976691;28;20030;-86
2022/06/22 10:03:55;;;;;;;;;;;26.40;99.90;;;;;;4977419;28;20392;-85
2022/06/22 10:06:46;;;;;;;;;;;26.50;99.90;;;;;;4977755;28;20374;-84
2022/06/22 10:09:25;;;;;;;;;;;26.50;99.90;;;;;;4963226;28;19926;-86
2022/06/22 10:11:56;;;;;;;;;;;26.50;99.90;;;;;;4979642;28;19964;-86
2022/06/22 10:14:42;;;;;;;;;;;26.50;99.90;;;;;;4981055;28;20012;-85
2022/06/22 10:17:24;;;;;;;;;;;26.50;99.90;;;;;;4980611;28;20017;-85
2022/06/22 10:19:59;;;;;;;;;;;26.50;99.90;;;;;;4980522;28;20024;-86
2022/06/22 10:22:34;;;;;;;;;;;26.50;99.90;;;;;;4979743;28;20329;-86
2022/06/22 10:25:25;;;;;;;;;;;26.50;99.90;;;;;;4977732;28;19926;-85
2022/06/22 10:28:00;;;;;;;;;;;26.50;99.90;;;;;;4962882;28;19926;-85
2022/06/22 10:30:31;;;;;;;;;;;26.50;99.90;;;;;;4978361;28;20103;-85
2022/06/22 10:33:16;;;;;;;;;;;26.60;99.90;;;;;;4977929;28;20337;-84
2022/06/22 10:35:50;;;;;;;;;;;26.50;99.90;;;;;;4967638;28;20302;-84
2022/06/22 10:38:23;;;;;;;;;;;26.50;99.90;;;;;;4976915;28;19941;-84
2022/06/22 10:46:46;;;;;;;;;;;26.50;99.90;;;;;;4976112;28;19932;-84
2022/06/22 10:49:33;;;;;;;;;;;26.60;99.90;;;;;;4975411;28;20059;-86
2022/06/22 10:52:20;;;;;;;;;;;26.60;99.90;;;;;;4975487;28;20366;-86
2022/06/22 10:55:02;;;;;;;;;;;26.60;99.90;;;;;;4970682;28;20024;-87
2022/06/22 10:57:45;;;;;;;;;;;26.60;99.90;;;;;;4979111;28;19922;-86
2022/06/22 11:00:20;;;;;;;;;;;26.60;99.90;;;;;;4975548;28;20016;-85
2022/06/22 11:02:59;;;;;;;;;;;26.60;99.90;;;;;;4975922;28;19929;-86
2022/06/22 11:05:34;;;;;;;;;;;26.60;99.90;;;;;;4976263;28;19981;-85
2022/06/22 11:08:26;;;;;;;;;;;26.60;99.90;;;;;;4975230;28;19961;-85
2022/06/22 11:10:58;;;;;;;;;;;26.60;99.90;;;;;;4975340;28;20016;-85
2022/06/22 11:13:39;;;;;;;;;;;26.70;99.90;;;;;;4975341;28;19929;-86
2022/06/22 11:16:12;;;;;;;;;;;26.60;99.90;;;;;;4975463;28;20425;-85
2022/06/22 11:18:58;;;;;;;;;;;26.70;99.90;;;;;;4975474;28;20313;-84
2022/06/22 11:21:32;;;;;;;;;;;26.70;99.90;;;;;;4979490;28;20441;-86
2022/06/22 11:24:08;;;;;;;;;;;26.70;99.90;;;;;;4982227;28;19996;-82
2022/06/22 11:32:36;;;;;;;;;;;26.70;99.90;;;;;;4982277;28;19925;-83
2022/06/22 11:35:12;;;;;;;;;;;26.70;99.90;;;;;;4981470;28;19926;-83
2022/06/22 11:37:49;;;;;;;;;;;26.80;99.90;;;;;;4981465;28;20339;-84
2022/06/22 11:40:26;;;;;;;;;;;26.80;99.90;;;;;;4984200;28;19945;-85
2022/06/22 11:42:57;;;;;;;;;;;26.80;99.90;;;;;;4983098;28;19976;-83
2022/06/22 11:48:32;;;;;;;;;;;26.80;99.90;;;;;;4979753;28;19918;-84
2022/06/22 11:51:07;;;;;;;;;;;26.80;99.90;;;;;;4981989;28;20402;-82
2022/06/22 11:53:39;;;;;;;;;;;26.80;99.90;;;;;;4980718;28;19922;-82
2022/06/22 11:56:26;;;;;;;;;;;26.80;99.90;;;;;;4981747;28;19973;-80
2022/06/22 11:59:03;;;;;;;;;;;26.80;99.90;;;;;;4980352;28;20016;-79
2022/06/22 12:01:43;;;;;;;;;;;26.80;99.90;;;;;;4985261;28;20017;-79
2022/06/22 12:04:30;;;;;;;;;;;26.90;99.90;;;;;;4984877;28;19929;-80
2022/06/22 12:07:20;;;;;;;;;;;26.90;99.90;;;;;;4983659;28;19922;-79
2022/06/22 12:10:00;;;;;;;;;;;26.90;99.90;;;;;;4983320;28;19922;-79
2022/06/22 12:12:35;;;;;;;;;;;26.90;99.90;;;;;;4984654;28;19982;-79
2022/06/22 12:15:09;;;;;;;;;;;26.90;99.90;;;;;;4984227;28;19989;-80
2022/06/22 12:17:43;;;;;;;;;;;27.00;99.90;;;;;;4983602;28;19922;-79
2022/06/22 12:20:17;;;;;;;;;;;27.00;99.90;;;;;;4982767;28;20013;-78
2022/06/22 12:22:52;;;;;;;;;;;27.00;99.90;;;;;;4984623;28;19922;-79
2022/06/22 12:25:27;;;;;;;;;;;27.00;99.90;;;;;;4986373;28;20262;-78
2022/06/22 12:27:57;;;;;;;;;;;26.90;99.90;;;;;;4986336;28;19929;-79
2022/06/22 12:30:38;;;;;;;;;;;27.00;99.90;;;;;;4987291;28;19922;-82
2022/06/22 12:33:10;;;;;;;;;;;26.90;99.90;;;;;;4986841;28;19921;-83
2022/06/22 12:35:42;;;;;;;;;;;26.90;99.90;;;;;;4987820;28;19929;-83
2022/06/22 12:38:17;;;;;;;;;;;26.90;99.90;;;;;;4986083;28;19922;-82
2022/06/22 12:40:49;;;;;;;;;;;26.90;99.90;;;;;;4985336;28;19932;-80
2022/06/22 12:43:27;;;;;;;;;;;26.90;99.90;;;;;;4987253;28;19928;-80
2022/06/22 12:45:55;;;;;;;;;;;26.90;99.90;;;;;;4985960;28;19977;-80
2022/06/22 12:48:30;;;;;;;;;;;26.90;99.90;;;;;;4987890;28;19922;-79
2022/06/22 12:51:09;;;;;;;;;;;26.90;99.90;;;;;;4986320;28;19921;-80
2022/06/22 12:53:39;;;;;;;;;;;26.90;99.90;;;;;;4983893;28;19929;-80
2022/06/22 12:56:08;;;;;;;;;;;26.80;99.90;;;;;;4983111;28;20010;-81
2022/06/22 12:58:38;;;;;;;;;;;26.80;99.90;;;;;;4983157;28;19936;-79
2022/06/22 13:01:05;;;;;;;;;;;26.90;99.90;;;;;;4982191;28;19969;-82
2022/06/22 13:03:35;;;;;;;;;;;26.90;99.90;;;;;;4983781;28;20017;-82
2022/06/22 13:06:03;;;;;;;;;;;26.90;99.90;;;;;;4982692;28;19922;-82
2022/06/22 13:08:30;;;;;;;;;;;26.90;99.90;;;;;;4981570;28;20446;-83
2022/06/22 13:10:59;;;;;;;;;;;26.90;99.90;;;;;;4980528;28;20332;-81
2022/06/22 13:13:30;;;;;;;;;;;26.90;99.90;;;;;;4982377;28;20005;-82
2022/06/22 13:15:59;;;;;;;;;;;26.90;99.90;;;;;;4982371;28;19929;-81
2022/06/22 13:18:32;;;;;;;;;;;26.90;99.90;;;;;;4981612;28;20012;-80
2022/06/22 13:21:04;;;;;;;;;;;26.90;99.90;;;;;;4982261;28;19957;-81
2022/06/22 13:23:37;;;;;;;;;;;26.90;99.90;;;;;;4981559;28;19922;-77
2022/06/22 13:26:11;;;;;;;;;;;26.90;99.90;;;;;;4980637;28;20452;-82
2022/06/22 13:28:41;;;;;;;;;;;26.90;99.90;;;;;;4979591;28;20438;-79
2022/06/22 13:31:12;;;;;;;;;;;26.90;99.90;;;;;;4980550;28;19922;-79
2022/06/22 13:33:42;;;;;;;;;;;26.90;99.90;;;;;;4982572;28;19922;-79
2022/06/22 13:36:11;;;;;;;;;;;26.90;99.90;;;;;;4982551;28;19977;-80
2022/06/22 13:38:54;;;;;;;;;;;26.90;99.90;;;;;;4981344;28;19922;-80
2022/06/22 13:41:28;;;;;;;;;;;26.90;99.90;;;;;;4963971;28;19982;-80
2022/06/22 13:44:08;;;;;;;;;;;26.90;99.90;;;;;;4979815;28;20305;-81
2022/06/22 13:46:42;;;;;;;;;;;26.90;99.90;;;;;;4980745;28;19922;-80
2022/06/22 13:49:15;;;;;;;;;;;26.90;99.90;;;;;;4980006;28;19922;-80
2022/06/22 13:51:52;;;;;;;;;;;26.90;99.90;;;;;;4980139;28;19929;-80
2022/06/22 13:54:37;;;;;;;;;;;26.90;99.90;;;;;;4981812;28;19985;-80
2022/06/22 13:57:12;;;;;;;;;;;26.90;99.90;;;;;;4978638;28;19929;-77
2022/06/22 13:59:42;;;;;;;;;;;26.90;99.90;;;;;;4978435;28;19928;-83
2022/06/22 14:02:17;;;;;;;;;;;26.90;99.90;;;;;;4979461;28;19922;-82
2022/06/22 14:04:49;;;;;;;;;;;26.90;99.90;;;;;;4977519;28;19922;-81
2022/06/22 14:07:19;;;;;;;;;;;26.90;99.90;;;;;;4959607;28;20005;-82
2022/06/22 14:09:50;;;;;;;;;;;26.90;99.90;;;;;;4976581;28;19922;-81
2022/06/22 14:12:21;;;;;;;;;;;26.90;99.90;;;;;;4976766;28;20016;-82
2022/06/22 14:15:00;;;;;;;;;;;26.90;99.90;;;;;;4977282;28;19922;-81
2022/06/22 14:17:30;;;;;;;;;;;26.90;99.90;;;;;;4976901;28;20373;-81
2022/06/22 14:20:01;;;;;;;;;;;26.90;99.90;;;;;;4976998;28;20362;-82
2022/06/22 14:22:36;;;;;;;;;;;26.90;99.90;;;;;;4976195;28;19922;-81
2022/06/22 14:25:08;;;;;;;;;;;26.90;99.90;;;;;;4976866;28;19922;-81
2022/06/22 14:27:49;;;;;;;;;;;26.90;99.90;;;;;;4976655;28;19921;-81
2022/06/22 14:30:22;;;;;;;;;;;26.90;99.90;;;;;;4959491;28;19922;-85
2022/06/22 14:32:59;;;;;;;;;;;26.80;99.90;;;;;;4976413;28;19922;-84
2022/06/22 14:35:33;;;;;;;;;;;26.90;99.90;;;;;;4976360;28;20262;-83
2022/06/22 14:38:05;;;;;;;;;;;26.80;99.90;;;;;;4978987;28;20393;-83
2022/06/22 14:40:36;;;;;;;;;;;26.80;99.90;;;;;;4984173;28;20370;-82
2022/06/22 14:43:13;;;;;;;;;;;26.80;99.90;;;;;;4982379;28;19968;-82
2022/06/22 14:45:43;;;;;;;;;;;26.80;99.90;;;;;;4984712;28;19955;-82
2022/06/22 14:48:14;;;;;;;;;;;26.80;99.90;;;;;;4982443;28;19921;-82
2022/06/22 14:50:47;;;;;;;;;;;26.80;99.90;;;;;;4966281;28;19922;-82
2022/06/22 14:53:20;;;;;;;;;;;26.80;99.90;;;;;;4983308;28;19926;-82
2022/06/22 14:55:50;;;;;;;;;;;26.80;99.90;;;;;;4983800;28;20285;-81
2022/06/22 14:58:31;;;;;;;;;;;26.80;99.90;;;;;;4984992;28;19929;-83
2022/06/22 15:00:59;;;;;;;;;;;26.80;99.90;;;;;;4984489;28;19922;-86
2022/06/22 15:03:30;;;;;;;;;;;26.80;99.90;;;;;;4984023;28;19922;-85
2022/06/22 15:06:01;;;;;;;;;;;26.80;99.90;;;;;;4983944;28;19985;-86
2022/06/22 15:08:31;;;;;;;;;;;26.80;99.90;;;;;;4985628;28;19922;-86
2022/06/22 15:11:01;;;;;;;;;;;26.80;99.90;;;;;;4986031;28;20369;-80
2022/06/22 15:13:29;;;;;;;;;;;26.80;99.90;;;;;;4987388;28;19922;-81
2022/06/22 15:15:59;;;;;;;;;;;26.80;99.90;;;;;;4983629;28;19928;-80
2022/06/22 15:18:34;;;;;;;;;;;26.80;99.90;;;;;;4984753;28;19961;-79
2022/06/22 15:21:03;;;;;;;;;;;26.80;99.90;;;;;;4982250;28;19922;-80
2022/06/22 15:23:33;;;;;;;;;;;26.80;99.90;;;;;;4984667;28;19922;-79
2022/06/22 15:26:03;;;;;;;;;;;26.80;99.90;;;;;;4987062;28;19979;-80
2022/06/22 15:28:36;;;;;;;;;;;26.80;99.90;;;;;;4987991;28;19961;-81
2022/06/22 15:31:17;;;;;;;;;;;26.80;99.90;;;;;;4984283;28;19922;-80
2022/06/22 15:33:47;;;;;;;;;;;26.80;99.90;;;;;;4983511;28;19945;-80
2022/06/22 15:36:20;;;;;;;;;;;26.80;99.90;;;;;;4979966;28;20401;-81
2022/06/22 15:38:49;;;;;;;;;;;26.80;99.90;;;;;;4978433;28;20434;-81
2022/06/22 15:41:24;;;;;;;;;;;26.80;99.90;;;;;;4977697;28;19928;-81
2022/06/22 15:43:57;;;;;;;;;;;26.80;99.90;;;;;;4977719;28;19944;-82
2022/06/22 15:46:27;;;;;;;;;;;26.80;99.90;;;;;;4977665;28;20000;-82
2022/06/22 15:48:57;;;;;;;;;;;26.80;99.90;;;;;;4977376;28;20333;-81
2022/06/22 15:51:29;;;;;;;;;;;26.80;99.90;;;;;;4977181;28;19969;-81
2022/06/22 15:54:04;;;;;;;;;;;26.80;99.90;;;;;;4977139;28;20013;-81
2022/06/22 15:56:34;;;;;;;;;;;26.80;99.90;;;;;;4977319;28;19972;-82
2022/06/22 15:59:06;;;;;;;;;;;26.80;99.90;;;;;;4977176;28;19922;-81
2022/06/22 16:01:39;;;;;;;;;;;26.80;99.90;;;;;;4977163;28;19922;-82
2022/06/22 16:04:10;;;;;;;;;;;26.80;99.90;;;;;;4978538;28;19985;-81
2022/06/22 16:06:43;;;;;;;;;;;26.80;99.90;;;;;;4977159;28;20008;-80
2022/06/22 16:09:12;;;;;;;;;;;26.80;99.90;;;;;;4976437;28;20020;-78
2022/06/22 16:14:32;;;;;;;;;;;26.80;99.90;;;;;;4975341;28;20001;-78
2022/06/22 16:17:00;;;;;;;;;;;26.80;99.90;;;;;;4974983;28;20030;-77
2022/06/22 16:19:31;;;;;;;;;;;26.80;99.90;;;;;;4975121;28;19968;-78
2022/06/22 16:22:00;;;;;;;;;;;26.80;99.90;;;;;;4979789;28;19928;-80
2022/06/22 16:24:28;;;;;;;;;;;26.80;99.90;;;;;;4982135;28;19922;-79
2022/06/22 16:26:57;;;;;;;;;;;26.80;99.90;;;;;;4976844;28;19922;-80
2022/06/22 16:29:26;;;;;;;;;;;26.70;99.90;;;;;;4976712;28;19928;-80
2022/06/22 16:31:57;;;;;;;;;;;26.70;99.90;;;;;;4976674;28;19922;-79
2022/06/22 16:34:29;;;;;;;;;;;26.80;99.90;;;;;;4977098;28;20017;-80
2022/06/22 16:37:02;;;;;;;;;;;26.80;99.90;;;;;;4976815;28;19926;-80
2022/06/22 16:39:32;;;;;;;;;;;26.80;99.90;;;;;;4976491;28;19922;-79
2022/06/22 16:42:03;;;;;;;;;;;26.80;99.90;;;;;;4977158;28;19965;-79
2022/06/22 16:44:31;;;;;;;;;;;26.80;99.90;;;;;;4976138;28;19922;-78
2022/06/22 16:47:00;;;;;;;;;;;26.80;99.90;;;;;;4979809;28;20289;-82
2022/06/22 16:49:29;;;;;;;;;;;26.80;99.90;;;;;;4980654;28;19922;-81
2022/06/22 16:51:59;;;;;;;;;;;26.80;99.90;;;;;;4979650;28;20386;-82
2022/06/22 16:54:29;;;;;;;;;;;26.80;99.90;;;;;;4981252;28;20012;-80
2022/06/22 16:57:00;;;;;;;;;;;26.80;99.90;;;;;;4979368;28;20021;-81
2022/06/22 16:59:28;;;;;;;;;;;26.80;99.90;;;;;;4980142;28;20412;-82
2022/06/22 17:01:56;;;;;;;;;;;26.80;99.90;;;;;;4980229;28;20021;-80
2022/06/22 17:04:28;;;;;;;;;;;26.80;99.90;;;;;;4981004;28;19980;-82
2022/06/22 17:07:00;;;;;;;;;;;26.80;99.90;;;;;;4981389;28;19978;-80
2022/06/22 17:09:29;;;;;;;;;;;26.80;99.90;;;;;;4982059;28;20366;-81
2022/06/22 17:11:57;;;;;;;;;;;26.80;99.90;;;;;;4981732;28;20021;-82
2022/06/22 17:14:27;;;;;;;;;;;26.80;99.90;;;;;;4980761;28;20021;-83
2022/06/22 17:17:11;;;;;;;;;;;26.80;99.90;;;;;;4981000;28;19965;-81
2022/06/22 17:19:47;;;;;;;;;;;26.80;99.90;;;;;;4982100;28;20024;-81
2022/06/22 17:22:16;;;;;;;;;;;26.70;99.90;;;;;;4982848;28;19922;-82
2022/06/22 17:24:49;;;;;;;;;;;26.80;99.90;;;;;;4983623;28;19922;-84
2022/06/22 17:27:19;;;;;;;;;;;26.70;99.90;;;;;;4984958;28;20016;-84
2022/06/22 17:29:49;;;;;;;;;;;26.80;99.90;;;;;;4985077;28;19971;-84
2022/06/22 17:32:19;;;;;;;;;;;26.70;99.90;;;;;;4984442;28;19932;-82
2022/06/22 17:34:51;;;;;;;;;;;26.70;99.90;;;;;;4983653;28;20020;-82
2022/06/22 17:37:26;;;;;;;;;;;26.70;99.90;;;;;;4988060;28;20020;-82
2022/06/22 17:40:01;;;;;;;;;;;26.70;99.90;;;;;;4983867;28;20362;-83
2022/06/22 17:42:31;;;;;;;;;;;26.70;99.90;;;;;;4984114;28;20109;-83
2022/06/22 17:45:04;;;;;;;;;;;26.70;99.90;;;;;;4985052;28;19922;-84
2022/06/22 17:47:34;;;;;;;;;;;26.70;99.90;;;;;;4985160;28;20388;-82
2022/06/22 17:50:06;;;;;;;;;;;26.70;99.90;;;;;;4982044;28;20353;-83
2022/06/22 17:52:33;;;;;;;;;;;26.70;99.90;;;;;;4981854;28;19972;-84
2022/06/22 17:55:03;;;;;;;;;;;26.70;99.90;;;;;;4981175;28;20036;-82
2022/06/22 17:57:31;;;;;;;;;;;26.70;99.90;;;;;;4980664;28;19990;-82
2022/06/22 17:59:59;;;;;;;;;;;26.70;99.90;;;;;;4982865;28;19928;-83
2022/06/22 18:02:30;;;;;;;;;;;26.70;99.90;;;;;;4982913;28;19965;-82
2022/06/22 18:05:11;;;;;;;;;;;26.70;99.90;;;;;;4982306;28;19933;-82
2022/06/22 18:07:43;;;;;;;;;;;26.70;99.90;;;;;;4982964;28;20366;-82
2022/06/22 18:10:10;;;;;;;;;;;26.70;99.90;;;;;;4982987;28;19985;-82
2022/06/22 18:12:40;;;;;;;;;;;26.70;99.90;;;;;;4981614;28;20016;-82
2022/06/22 18:15:10;;;;;;;;;;;26.70;99.90;;;;;;4981927;28;19925;-81
2022/06/22 18:17:37;;;;;;;;;;;26.70;99.90;;;;;;4981604;28;19926;-82
2022/06/22 18:20:06;;;;;;;;;;;26.70;99.90;;;;;;4981457;28;20409;-82
2022/06/22 18:22:34;;;;;;;;;;;26.70;99.90;;;;;;4983442;28;20020;-82
2022/06/22 18:25:03;;;;;;;;;;;26.60;99.90;;;;;;4984736;28;19985;-84
2022/06/22 18:27:33;;;;;;;;;;;26.70;99.90;;;;;;4984320;28;19989;-82
2022/06/22 18:30:03;;;;;;;;;;;26.70;99.90;;;;;;4982929;28;20008;-82
2022/06/22 18:32:31;;;;;;;;;;;26.70;99.90;;;;;;4985477;28;20008;-83
2022/06/22 18:35:03;;;;;;;;;;;26.60;99.90;;;;;;4986935;28;20004;-83
2022/06/22 18:37:33;;;;;;;;;;;26.60;99.90;;;;;;4986419;28;19961;-82
2022/06/22 18:42:49;;;;;;;;;;;26.60;99.90;;;;;;4984572;28;20013;-82
2022/06/22 18:45:21;;;;;;;;;;;26.60;99.90;;;;;;4982979;28;19972;-82
2022/06/22 18:47:49;;;;;;;;;;;26.60;99.90;;;;;;4985318;28;19929;-83
2022/06/22 18:50:18;;;;;;;;;;;26.60;99.90;;;;;;4986122;28;19926;-82
2022/06/22 18:52:48;;;;;;;;;;;26.60;99.90;;;;;;4986571;28;19986;-82
2022/06/22 18:55:18;;;;;;;;;;;26.60;99.90;;;;;;4985641;28;20016;-82
2022/06/22 18:57:46;;;;;;;;;;;26.60;99.90;;;;;;4986490;28;19957;-81
2022/06/22 19:00:15;;;;;;;;;;;26.60;99.90;;;;;;4986598;28;19929;-82
2022/06/22 19:02:44;;;;;;;;;;;26.60;99.90;;;;;;4983996;28;20290;-84
2022/06/22 19:05:15;;;;;;;;;;;26.60;99.90;;;;;;4983688;28;19994;-83
2022/06/22 19:07:44;;;;;;;;;;;26.60;99.90;;;;;;4979878;28;19922;-83
2022/06/22 19:10:18;;;;;;;;;;;26.60;99.90;;;;;;4983217;28;19981;-83
2022/06/22 19:12:48;;;;;;;;;;;26.60;99.90;;;;;;4981985;28;20008;-83
2022/06/22 19:15:18;;;;;;;;;;;26.60;99.90;;;;;;4979082;28;19922;-83
2022/06/22 19:17:53;;;;;;;;;;;26.70;99.90;;;;;;4980469;28;20389;-83
2022/06/22 19:20:30;;;;;;;;;;;26.60;99.90;;;;;;4981441;28;20001;-84
2022/06/22 19:23:19;;;;;;;;;;;26.70;99.90;;;;;;4980999;28;19921;-84
2022/06/22 19:25:50;;;;;;;;;;;26.70;99.90;;;;;;4980141;28;19978;-83
2022/06/22 19:28:23;;;;;;;;;;;26.70;99.90;;;;;;4980385;28;20420;-83
2022/06/22 19:30:55;;;;;;;;;;;26.70;99.90;;;;;;4981024;28;20370;-84
2022/06/22 19:33:25;;;;;;;;;;;26.70;99.90;;;;;;4979195;28;19929;-83
2022/06/22 19:35:53;;;;;;;;;;;26.70;99.90;;;;;;4979452;28;19926;-82
2022/06/22 19:38:24;;;;;;;;;;;26.70;99.90;;;;;;4978383;28;19945;-83
2022/06/22 19:40:56;;;;;;;;;;;26.70;99.90;;;;;;4979107;28;19922;-82
2022/06/22 19:43:35;;;;;;;;;;;26.70;99.90;;;;;;4979964;28;19989;-82
2022/06/22 19:46:09;;;;;;;;;;;26.70;99.90;;;;;;4979807;28;20009;-83
2022/06/22 19:48:40;;;;;;;;;;;26.70;99.90;;;;;;4980272;28;20000;-83